sensor_id;sensor_type;location;lat;lon;timestamp;P1;durP1;ratioP1;P2;durP2;ratioP2
60354;SDS011;46198;51.464;-0.066;2023-02-28T00:01:31;8.13;;;1.77;;
60354;SDS011;46198;51.464;-0.066;2023-02-28T00:04:00;3.97;;;1.40;;
60354;SDS011;46198;51.464;-0.066;2023-02-28T00:06:28;4.60;;;1.60;;
60354;SDS011;46198;51.464;-0.066;2023-02-28T00:08:56;5.67;;;1.80;;
60354;SDS011;46198;51.464;-0.066;2023-02-28T00:11:24;3.40;;;1.33;;
60354;SDS011;46198;51.464;-0.066;2023-02-28T00:13:53;5.63;;;1.90;;
60354;SDS011;46198;51.464;-0.066;2023-02-28T00:16:22;4.07;;;1.63;;
60354;SDS011;46198;51.464;-0.066;2023-02-28T00:18:50;3.80;;;2.30;;
60354;SDS011;46198;51.464;-0.066;2023-02-28T00:21:18;6.03;;;1.60;;
60354;SDS011;46198;51.464;-0.066;2023-02-28T00:23:47;7.23;;;1.73;;
60354;SDS011;46198;51.464;-0.066;2023-02-28T00:26:15;7.37;;;1.67;;
60354;SDS011;46198;51.464;-0.066;2023-02-28T00:28:47;6.43;;;1.93;;
60354;SDS011;46198;51.464;-0.066;2023-02-28T00:31:15;6.27;;;1.87;;
60354;SDS011;46198;51.464;-0.066;2023-02-28T00:33:45;6.97;;;2.57;;
60354;SDS011;46198;51.464;-0.066;2023-02-28T00:36:13;7.37;;;2.13;;
60354;SDS011;46198;51.464;-0.066;2023-02-28T00:38:41;3.73;;;2.10;;
60354;SDS011;46198;51.464;-0.066;2023-02-28T00:41:09;6.97;;;2.10;;
60354;SDS011;46198;51.464;-0.066;2023-02-28T00:43:38;6.33;;;2.63;;
60354;SDS011;46198;51.464;-0.066;2023-02-28T00:46:07;5.23;;;2.17;;
60354;SDS011;46198;51.464;-0.066;2023-02-28T00:48:35;9.63;;;2.27;;
60354;SDS011;46198;51.464;-0.066;2023-02-28T00:51:05;7.53;;;2.63;;
60354;SDS011;46198;51.464;-0.066;2023-02-28T00:53:33;7.20;;;2.23;;
60354;SDS011;46198;51.464;-0.066;2023-02-28T00:56:01;5.20;;;1.90;;
60354;SDS011;46198;51.464;-0.066;2023-02-28T00:58:30;6.73;;;2.10;;
60354;SDS011;46198;51.464;-0.066;2023-02-28T01:00:58;4.83;;;2.00;;
60354;SDS011;46198;51.464;-0.066;2023-02-28T01:03:26;5.67;;;2.40;;
60354;SDS011;46198;51.464;-0.066;2023-02-28T01:05:54;8.40;;;2.60;;
60354;SDS011;46198;51.464;-0.066;2023-02-28T01:08:24;4.50;;;2.10;;
60354;SDS011;46198;51.464;-0.066;2023-02-28T01:10:52;8.10;;;2.47;;
60354;SDS011;46198;51.464;-0.066;2023-02-28T01:13:21;8.43;;;2.20;;
60354;SDS011;46198;51.464;-0.066;2023-02-28T01:15:50;8.00;;;2.57;;
60354;SDS011;46198;51.464;-0.066;2023-02-28T01:18:20;5.60;;;2.25;;
60354;SDS011;46198;51.464;-0.066;2023-02-28T01:20:48;4.20;;;2.23;;
60354;SDS011;46198;51.464;-0.066;2023-02-28T01:23:18;6.77;;;2.67;;
60354;SDS011;46198;51.464;-0.066;2023-02-28T01:25:47;15.90;;;2.77;;
60354;SDS011;46198;51.464;-0.066;2023-02-28T01:28:16;8.37;;;2.87;;
60354;SDS011;46198;51.464;-0.066;2023-02-28T01:30:47;6.77;;;2.70;;
60354;SDS011;46198;51.464;-0.066;2023-02-28T01:33:15;5.73;;;2.63;;
60354;SDS011;46198;51.464;-0.066;2023-02-28T01:35:43;9.03;;;2.70;;
60354;SDS011;46198;51.464;-0.066;2023-02-28T01:38:11;4.10;;;2.50;;
60354;SDS011;46198;51.464;-0.066;2023-02-28T01:40:49;7.17;;;2.43;;
60354;SDS011;46198;51.464;-0.066;2023-02-28T01:43:22;5.37;;;2.60;;
60354;SDS011;46198;51.464;-0.066;2023-02-28T01:45:54;7.03;;;2.50;;
60354;SDS011;46198;51.464;-0.066;2023-02-28T01:48:24;7.88;;;2.40;;
60354;SDS011;46198;51.464;-0.066;2023-02-28T01:50:55;12.40;;;3.35;;
60354;SDS011;46198;51.464;-0.066;2023-02-28T01:53:29;9.27;;;3.27;;
60354;SDS011;46198;51.464;-0.066;2023-02-28T01:56:01;6.97;;;3.13;;
60354;SDS011;46198;51.464;-0.066;2023-02-28T01:58:34;10.30;;;3.27;;
60354;SDS011;46198;51.464;-0.066;2023-02-28T02:01:02;8.77;;;3.30;;
60354;SDS011;46198;51.464;-0.066;2023-02-28T02:03:32;6.90;;;2.83;;
60354;SDS011;46198;51.464;-0.066;2023-02-28T02:06:03;11.52;;;3.65;;
60354;SDS011;46198;51.464;-0.066;2023-02-28T02:08:31;7.87;;;3.30;;
60354;SDS011;46198;51.464;-0.066;2023-02-28T02:11:01;7.83;;;3.30;;
60354;SDS011;46198;51.464;-0.066;2023-02-28T02:13:44;9.07;;;3.47;;
60354;SDS011;46198;51.464;-0.066;2023-02-28T02:16:39;7.10;;;3.50;;
60354;SDS011;46198;51.464;-0.066;2023-02-28T02:19:25;7.03;;;2.95;;
60354;SDS011;46198;51.464;-0.066;2023-02-28T02:22:20;8.87;;;3.13;;
60354;SDS011;46198;51.464;-0.066;2023-02-28T02:25:12;7.23;;;3.20;;
60354;SDS011;46198;51.464;-0.066;2023-02-28T02:31:06;7.97;;;3.80;;
60354;SDS011;46198;51.464;-0.066;2023-02-28T02:34:17;6.03;;;3.37;;
60354;SDS011;46198;51.464;-0.066;2023-02-28T02:36:58;6.77;;;3.17;;
60354;SDS011;46198;51.464;-0.066;2023-02-28T02:39:34;8.27;;;3.40;;
60354;SDS011;46198;51.464;-0.066;2023-02-28T02:42:11;8.23;;;3.47;;
60354;SDS011;46198;51.464;-0.066;2023-02-28T02:44:43;5.40;;;3.10;;
60354;SDS011;46198;51.464;-0.066;2023-02-28T02:47:17;6.37;;;2.77;;
60354;SDS011;46198;51.464;-0.066;2023-02-28T02:49:49;8.00;;;3.50;;
60354;SDS011;46198;51.464;-0.066;2023-02-28T02:52:22;8.77;;;3.50;;
60354;SDS011;46198;51.464;-0.066;2023-02-28T02:54:54;11.80;;;3.83;;
60354;SDS011;46198;51.464;-0.066;2023-02-28T02:57:25;8.23;;;4.83;;
60354;SDS011;46198;51.464;-0.066;2023-02-28T02:59:57;9.57;;;3.87;;
60354;SDS011;46198;51.464;-0.066;2023-02-28T03:02:30;11.20;;;3.70;;
60354;SDS011;46198;51.464;-0.066;2023-02-28T03:05:03;8.13;;;3.63;;
60354;SDS011;46198;51.464;-0.066;2023-02-28T03:07:34;10.57;;;3.77;;
60354;SDS011;46198;51.464;-0.066;2023-02-28T03:10:02;7.33;;;3.47;;
60354;SDS011;46198;51.464;-0.066;2023-02-28T03:12:53;15.77;;;3.60;;
60354;SDS011;46198;51.464;-0.066;2023-02-28T03:15:33;7.27;;;3.03;;
60354;SDS011;46198;51.464;-0.066;2023-02-28T03:18:12;9.90;;;3.10;;
60354;SDS011;46198;51.464;-0.066;2023-02-28T03:20:50;9.17;;;3.27;;
60354;SDS011;46198;51.464;-0.066;2023-02-28T03:23:29;8.13;;;4.10;;
60354;SDS011;46198;51.464;-0.066;2023-02-28T03:26:07;13.43;;;3.63;;
60354;SDS011;46198;51.464;-0.066;2023-02-28T03:28:50;5.07;;;3.07;;
60354;SDS011;46198;51.464;-0.066;2023-02-28T03:31:27;10.17;;;3.30;;
60354;SDS011;46198;51.464;-0.066;2023-02-28T03:34:01;10.63;;;3.50;;
60354;SDS011;46198;51.464;-0.066;2023-02-28T03:36:35;11.43;;;3.80;;
60354;SDS011;46198;51.464;-0.066;2023-02-28T03:39:11;5.93;;;3.27;;
60354;SDS011;46198;51.464;-0.066;2023-02-28T03:41:44;12.10;;;4.10;;
60354;SDS011;46198;51.464;-0.066;2023-02-28T03:44:18;11.50;;;3.80;;
60354;SDS011;46198;51.464;-0.066;2023-02-28T03:46:53;10.23;;;3.87;;
60354;SDS011;46198;51.464;-0.066;2023-02-28T03:49:25;6.40;;;3.93;;
60354;SDS011;46198;51.464;-0.066;2023-02-28T03:51:58;5.93;;;3.83;;
60354;SDS011;46198;51.464;-0.066;2023-02-28T03:54:30;11.33;;;4.00;;
60354;SDS011;46198;51.464;-0.066;2023-02-28T03:57:02;8.80;;;3.45;;
60354;SDS011;46198;51.464;-0.066;2023-02-28T03:59:36;10.03;;;4.30;;
60354;SDS011;46198;51.464;-0.066;2023-02-28T04:02:07;16.67;;;3.80;;
60354;SDS011;46198;51.464;-0.066;2023-02-28T04:04:35;6.60;;;3.67;;
60354;SDS011;46198;51.464;-0.066;2023-02-28T04:07:04;9.47;;;3.87;;
60354;SDS011;46198;51.464;-0.066;2023-02-28T04:12:32;9.37;;;4.37;;
60354;SDS011;46198;51.464;-0.066;2023-02-28T04:15:01;7.63;;;3.80;;
60354;SDS011;46198;51.464;-0.066;2023-02-28T04:17:29;11.17;;;3.57;;
60354;SDS011;46198;51.464;-0.066;2023-02-28T04:19:57;9.40;;;3.23;;
60354;SDS011;46198;51.464;-0.066;2023-02-28T04:22:25;9.83;;;3.70;;
60354;SDS011;46198;51.464;-0.066;2023-02-28T04:24:53;10.63;;;3.30;;
60354;SDS011;46198;51.464;-0.066;2023-02-28T04:27:21;7.93;;;4.30;;
60354;SDS011;46198;51.464;-0.066;2023-02-28T04:29:49;8.37;;;3.23;;
60354;SDS011;46198;51.464;-0.066;2023-02-28T04:32:18;7.93;;;4.23;;
60354;SDS011;46198;51.464;-0.066;2023-02-28T04:34:47;7.73;;;3.50;;
60354;SDS011;46198;51.464;-0.066;2023-02-28T04:37:15;9.07;;;3.83;;
60354;SDS011;46198;51.464;-0.066;2023-02-28T04:39:43;10.90;;;3.67;;
60354;SDS011;46198;51.464;-0.066;2023-02-28T04:42:11;5.97;;;3.53;;
60354;SDS011;46198;51.464;-0.066;2023-02-28T04:44:40;7.47;;;3.90;;
60354;SDS011;46198;51.464;-0.066;2023-02-28T04:47:07;8.20;;;4.17;;
60354;SDS011;46198;51.464;-0.066;2023-02-28T04:49:37;6.80;;;3.97;;
60354;SDS011;46198;51.464;-0.066;2023-02-28T04:52:05;10.97;;;5.17;;
60354;SDS011;46198;51.464;-0.066;2023-02-28T04:54:34;12.83;;;5.27;;
60354;SDS011;46198;51.464;-0.066;2023-02-28T04:57:02;9.23;;;5.27;;
60354;SDS011;46198;51.464;-0.066;2023-02-28T04:59:30;11.57;;;5.00;;
60354;SDS011;46198;51.464;-0.066;2023-02-28T05:01:59;14.43;;;6.10;;
60354;SDS011;46198;51.464;-0.066;2023-02-28T05:04:30;12.47;;;5.63;;
60354;SDS011;46198;51.464;-0.066;2023-02-28T05:07:02;10.88;;;5.65;;
60354;SDS011;46198;51.464;-0.066;2023-02-28T05:09:30;13.43;;;5.83;;
60354;SDS011;46198;51.464;-0.066;2023-02-28T05:11:59;11.57;;;6.40;;
60354;SDS011;46198;51.464;-0.066;2023-02-28T05:14:27;14.30;;;6.57;;
60354;SDS011;46198;51.464;-0.066;2023-02-28T05:16:55;12.57;;;5.67;;
60354;SDS011;46198;51.464;-0.066;2023-02-28T05:19:23;16.73;;;5.93;;
60354;SDS011;46198;51.464;-0.066;2023-02-28T05:21:52;11.13;;;6.23;;
60354;SDS011;46198;51.464;-0.066;2023-02-28T05:24:23;15.45;;;6.35;;
60354;SDS011;46198;51.464;-0.066;2023-02-28T05:26:51;9.17;;;5.80;;
60354;SDS011;46198;51.464;-0.066;2023-02-28T05:29:20;13.77;;;6.40;;
60354;SDS011;46198;51.464;-0.066;2023-02-28T05:31:48;15.57;;;6.83;;
60354;SDS011;46198;51.464;-0.066;2023-02-28T05:34:17;10.23;;;5.63;;
60354;SDS011;46198;51.464;-0.066;2023-02-28T05:36:44;13.27;;;5.40;;
60354;SDS011;46198;51.464;-0.066;2023-02-28T05:39:12;14.40;;;5.97;;
60354;SDS011;46198;51.464;-0.066;2023-02-28T05:41:42;12.70;;;5.40;;
60354;SDS011;46198;51.464;-0.066;2023-02-28T05:44:11;11.18;;;5.80;;
60354;SDS011;46198;51.464;-0.066;2023-02-28T05:46:39;10.20;;;5.83;;
60354;SDS011;46198;51.464;-0.066;2023-02-28T05:49:07;14.10;;;5.97;;
60354;SDS011;46198;51.464;-0.066;2023-02-28T05:51:35;8.83;;;5.90;;
60354;SDS011;46198;51.464;-0.066;2023-02-28T05:56:34;14.07;;;4.97;;
60354;SDS011;46198;51.464;-0.066;2023-02-28T05:59:05;11.67;;;5.57;;
60354;SDS011;46198;51.464;-0.066;2023-02-28T06:01:34;9.50;;;6.10;;
60354;SDS011;46198;51.464;-0.066;2023-02-28T06:04:04;9.57;;;5.17;;
60354;SDS011;46198;51.464;-0.066;2023-02-28T06:06:33;13.23;;;5.73;;
60354;SDS011;46198;51.464;-0.066;2023-02-28T06:09:04;15.57;;;6.10;;
60354;SDS011;46198;51.464;-0.066;2023-02-28T06:11:32;10.87;;;5.83;;
60354;SDS011;46198;51.464;-0.066;2023-02-28T06:14:00;11.17;;;5.53;;
60354;SDS011;46198;51.464;-0.066;2023-02-28T06:16:31;13.90;;;6.07;;
60354;SDS011;46198;51.464;-0.066;2023-02-28T06:19:02;13.13;;;6.10;;
60354;SDS011;46198;51.464;-0.066;2023-02-28T06:21:31;14.63;;;6.27;;
60354;SDS011;46198;51.464;-0.066;2023-02-28T06:23:59;13.07;;;5.90;;
60354;SDS011;46198;51.464;-0.066;2023-02-28T06:26:27;13.23;;;6.57;;
60354;SDS011;46198;51.464;-0.066;2023-02-28T06:28:55;15.20;;;7.30;;
60354;SDS011;46198;51.464;-0.066;2023-02-28T06:31:23;12.43;;;6.40;;
60354;SDS011;46198;51.464;-0.066;2023-02-28T06:33:54;12.17;;;6.50;;
60354;SDS011;46198;51.464;-0.066;2023-02-28T06:36:22;12.40;;;6.60;;
60354;SDS011;46198;51.464;-0.066;2023-02-28T06:38:50;12.70;;;6.60;;
60354;SDS011;46198;51.464;-0.066;2023-02-28T06:41:21;15.00;;;7.30;;
60354;SDS011;46198;51.464;-0.066;2023-02-28T06:43:50;15.43;;;7.07;;
60354;SDS011;46198;51.464;-0.066;2023-02-28T06:46:20;14.77;;;7.00;;
60354;SDS011;46198;51.464;-0.066;2023-02-28T06:48:48;18.07;;;7.10;;
60354;SDS011;46198;51.464;-0.066;2023-02-28T06:51:19;14.80;;;6.87;;
60354;SDS011;46198;51.464;-0.066;2023-02-28T06:53:48;11.77;;;6.20;;
60354;SDS011;46198;51.464;-0.066;2023-02-28T06:56:17;16.07;;;6.20;;
60354;SDS011;46198;51.464;-0.066;2023-02-28T06:58:47;13.20;;;6.67;;
60354;SDS011;46198;51.464;-0.066;2023-02-28T07:01:15;12.37;;;6.97;;
60354;SDS011;46198;51.464;-0.066;2023-02-28T07:03:44;12.57;;;7.03;;
60354;SDS011;46198;51.464;-0.066;2023-02-28T07:06:12;11.50;;;6.40;;
60354;SDS011;46198;51.464;-0.066;2023-02-28T07:08:41;12.93;;;6.70;;
60354;SDS011;46198;51.464;-0.066;2023-02-28T07:11:09;13.97;;;7.13;;
60354;SDS011;46198;51.464;-0.066;2023-02-28T07:13:37;11.47;;;6.50;;
60354;SDS011;46198;51.464;-0.066;2023-02-28T07:16:06;13.47;;;6.60;;
60354;SDS011;46198;51.464;-0.066;2023-02-28T07:18:37;13.60;;;5.97;;
60354;SDS011;46198;51.464;-0.066;2023-02-28T07:21:06;11.30;;;6.70;;
60354;SDS011;46198;51.464;-0.066;2023-02-28T07:23:37;14.02;;;5.72;;
60354;SDS011;46198;51.464;-0.066;2023-02-28T07:26:07;15.10;;;7.10;;
60354;SDS011;46198;51.464;-0.066;2023-02-28T07:28:41;11.67;;;5.80;;
60354;SDS011;46198;51.464;-0.066;2023-02-28T07:31:09;10.60;;;5.57;;
60354;SDS011;46198;51.464;-0.066;2023-02-28T07:33:38;12.40;;;6.23;;
60354;SDS011;46198;51.464;-0.066;2023-02-28T07:36:07;10.60;;;5.80;;
60354;SDS011;46198;51.464;-0.066;2023-02-28T07:38:40;13.73;;;6.43;;
60354;SDS011;46198;51.464;-0.066;2023-02-28T07:41:14;12.00;;;5.57;;
60354;SDS011;46198;51.464;-0.066;2023-02-28T07:43:43;7.13;;;5.33;;
60354;SDS011;46198;51.464;-0.066;2023-02-28T07:46:12;10.87;;;6.10;;
60354;SDS011;46198;51.464;-0.066;2023-02-28T07:48:42;7.43;;;5.07;;
60354;SDS011;46198;51.464;-0.066;2023-02-28T07:51:11;8.43;;;5.10;;
60354;SDS011;46198;51.464;-0.066;2023-02-28T07:53:39;11.37;;;5.17;;
60354;SDS011;46198;51.464;-0.066;2023-02-28T07:56:07;12.03;;;5.17;;
60354;SDS011;46198;51.464;-0.066;2023-02-28T07:58:37;9.47;;;4.57;;
60354;SDS011;46198;51.464;-0.066;2023-02-28T08:01:06;7.67;;;4.87;;
60354;SDS011;46198;51.464;-0.066;2023-02-28T08:03:35;8.40;;;5.10;;
60354;SDS011;46198;51.464;-0.066;2023-02-28T08:06:05;9.83;;;4.33;;
60354;SDS011;46198;51.464;-0.066;2023-02-28T08:08:34;8.73;;;4.93;;
60354;SDS011;46198;51.464;-0.066;2023-02-28T08:11:03;11.23;;;5.37;;
60354;SDS011;46198;51.464;-0.066;2023-02-28T08:13:31;7.80;;;4.90;;
60354;SDS011;46198;51.464;-0.066;2023-02-28T08:16:01;8.73;;;4.83;;
60354;SDS011;46198;51.464;-0.066;2023-02-28T08:18:30;7.60;;;4.50;;
60354;SDS011;46198;51.464;-0.066;2023-02-28T08:20:58;11.13;;;4.47;;
60354;SDS011;46198;51.464;-0.066;2023-02-28T08:23:26;9.00;;;5.00;;
60354;SDS011;46198;51.464;-0.066;2023-02-28T08:25:54;6.67;;;4.73;;
60354;SDS011;46198;51.464;-0.066;2023-02-28T08:28:23;8.73;;;4.80;;
60354;SDS011;46198;51.464;-0.066;2023-02-28T08:30:53;8.43;;;5.13;;
60354;SDS011;46198;51.464;-0.066;2023-02-28T08:33:23;10.67;;;5.17;;
60354;SDS011;46198;51.464;-0.066;2023-02-28T08:35:52;6.88;;;3.97;;
60354;SDS011;46198;51.464;-0.066;2023-02-28T08:38:21;9.43;;;4.23;;
60354;SDS011;46198;51.464;-0.066;2023-02-28T08:40:49;7.93;;;4.33;;
60354;SDS011;46198;51.464;-0.066;2023-02-28T08:43:24;7.37;;;4.00;;
60354;SDS011;46198;51.464;-0.066;2023-02-28T08:45:52;6.40;;;4.27;;
60354;SDS011;46198;51.464;-0.066;2023-02-28T08:48:20;7.90;;;4.10;;
60354;SDS011;46198;51.464;-0.066;2023-02-28T08:50:56;7.87;;;3.80;;
60354;SDS011;46198;51.464;-0.066;2023-02-28T08:53:33;8.37;;;4.03;;
60354;SDS011;46198;51.464;-0.066;2023-02-28T08:56:02;6.83;;;3.83;;
60354;SDS011;46198;51.464;-0.066;2023-02-28T08:58:31;6.68;;;3.53;;
60354;SDS011;46198;51.464;-0.066;2023-02-28T09:01:06;6.00;;;3.67;;
60354;SDS011;46198;51.464;-0.066;2023-02-28T09:03:37;6.10;;;3.10;;
60354;SDS011;46198;51.464;-0.066;2023-02-28T09:06:06;5.43;;;3.30;;
60354;SDS011;46198;51.464;-0.066;2023-02-28T09:08:34;7.67;;;2.93;;
60354;SDS011;46198;51.464;-0.066;2023-02-28T09:11:03;4.67;;;3.20;;
60354;SDS011;46198;51.464;-0.066;2023-02-28T09:13:31;4.57;;;2.93;;
60354;SDS011;46198;51.464;-0.066;2023-02-28T09:16:00;6.57;;;3.00;;
60354;SDS011;46198;51.464;-0.066;2023-02-28T09:18:33;6.07;;;3.00;;
60354;SDS011;46198;51.464;-0.066;2023-02-28T09:21:04;5.73;;;3.13;;
60354;SDS011;46198;51.464;-0.066;2023-02-28T09:23:32;7.85;;;3.00;;
60354;SDS011;46198;51.464;-0.066;2023-02-28T09:26:01;4.20;;;2.47;;
60354;SDS011;46198;51.464;-0.066;2023-02-28T09:28:29;6.23;;;2.70;;
60354;SDS011;46198;51.464;-0.066;2023-02-28T09:33:48;4.60;;;2.27;;
60354;SDS011;46198;51.464;-0.066;2023-02-28T09:36:19;8.17;;;3.23;;
60354;SDS011;46198;51.464;-0.066;2023-02-28T09:38:50;5.93;;;2.70;;
60354;SDS011;46198;51.464;-0.066;2023-02-28T09:41:20;4.17;;;2.50;;
60354;SDS011;46198;51.464;-0.066;2023-02-28T09:43:50;5.50;;;2.33;;
60354;SDS011;46198;51.464;-0.066;2023-02-28T09:46:29;8.67;;;2.93;;
60354;SDS011;46198;51.464;-0.066;2023-02-28T09:49:02;6.07;;;2.60;;
60354;SDS011;46198;51.464;-0.066;2023-02-28T09:51:37;8.13;;;3.17;;
60354;SDS011;46198;51.464;-0.066;2023-02-28T09:54:13;6.83;;;2.80;;
60354;SDS011;46198;51.464;-0.066;2023-02-28T09:56:45;6.13;;;2.80;;
60354;SDS011;46198;51.464;-0.066;2023-02-28T09:59:30;5.87;;;2.60;;
60354;SDS011;46198;51.464;-0.066;2023-02-28T10:02:10;6.40;;;3.00;;
60354;SDS011;46198;51.464;-0.066;2023-02-28T10:04:50;6.63;;;2.83;;
60354;SDS011;46198;51.464;-0.066;2023-02-28T10:07:26;9.13;;;3.33;;
60354;SDS011;46198;51.464;-0.066;2023-02-28T10:10:06;4.80;;;3.30;;
60354;SDS011;46198;51.464;-0.066;2023-02-28T10:12:45;5.43;;;2.80;;
60354;SDS011;46198;51.464;-0.066;2023-02-28T10:15:14;6.27;;;3.43;;
60354;SDS011;46198;51.464;-0.066;2023-02-28T10:17:45;6.17;;;3.43;;
60354;SDS011;46198;51.464;-0.066;2023-02-28T10:20:26;6.13;;;2.93;;
60354;SDS011;46198;51.464;-0.066;2023-02-28T10:23:00;7.07;;;3.13;;
60354;SDS011;46198;51.464;-0.066;2023-02-28T10:25:34;6.40;;;2.90;;
60354;SDS011;46198;51.464;-0.066;2023-02-28T10:28:09;4.97;;;2.50;;
60354;SDS011;46198;51.464;-0.066;2023-02-28T10:30:40;5.57;;;2.90;;
60354;SDS011;46198;51.464;-0.066;2023-02-28T10:33:14;4.28;;;2.42;;
60354;SDS011;46198;51.464;-0.066;2023-02-28T10:35:47;5.67;;;2.67;;
60354;SDS011;46198;51.464;-0.066;2023-02-28T10:38:18;3.60;;;2.43;;
60354;SDS011;46198;51.464;-0.066;2023-02-28T10:40:48;3.90;;;2.47;;
60354;SDS011;46198;51.464;-0.066;2023-02-28T10:43:20;5.43;;;2.27;;
60354;SDS011;46198;51.464;-0.066;2023-02-28T10:45:58;5.37;;;2.77;;
60354;SDS011;46198;51.464;-0.066;2023-02-28T10:48:31;4.30;;;2.00;;
60354;SDS011;46198;51.464;-0.066;2023-02-28T10:51:02;3.97;;;2.67;;
60354;SDS011;46198;51.464;-0.066;2023-02-28T10:53:34;4.97;;;2.70;;
60354;SDS011;46198;51.464;-0.066;2023-02-28T10:56:25;5.03;;;2.87;;
60354;SDS011;46198;51.464;-0.066;2023-02-28T10:58:56;4.07;;;2.57;;
60354;SDS011;46198;51.464;-0.066;2023-02-28T11:01:33;7.03;;;3.00;;
60354;SDS011;46198;51.464;-0.066;2023-02-28T11:04:04;3.10;;;2.57;;
60354;SDS011;46198;51.464;-0.066;2023-02-28T11:06:45;4.33;;;2.30;;
60354;SDS011;46198;51.464;-0.066;2023-02-28T11:09:20;4.40;;;2.10;;
60354;SDS011;46198;51.464;-0.066;2023-02-28T11:11:51;2.90;;;1.97;;
60354;SDS011;46198;51.464;-0.066;2023-02-28T11:14:20;3.87;;;2.30;;
60354;SDS011;46198;51.464;-0.066;2023-02-28T11:16:52;7.10;;;2.40;;
60354;SDS011;46198;51.464;-0.066;2023-02-28T11:19:23;6.90;;;2.42;;
60354;SDS011;46198;51.464;-0.066;2023-02-28T11:21:55;6.10;;;2.50;;
60354;SDS011;46198;51.464;-0.066;2023-02-28T11:24:28;3.10;;;2.30;;
60354;SDS011;46198;51.464;-0.066;2023-02-28T11:27:01;2.77;;;2.00;;
60354;SDS011;46198;51.464;-0.066;2023-02-28T11:29:30;2.37;;;1.90;;
60354;SDS011;46198;51.464;-0.066;2023-02-28T11:32:03;2.63;;;2.17;;
60354;SDS011;46198;51.464;-0.066;2023-02-28T11:34:41;5.03;;;2.47;;
60354;SDS011;46198;51.464;-0.066;2023-02-28T11:37:11;4.77;;;2.70;;
60354;SDS011;46198;51.464;-0.066;2023-02-28T11:39:43;3.90;;;2.60;;
60354;SDS011;46198;51.464;-0.066;2023-02-28T11:42:17;5.47;;;2.88;;
60354;SDS011;46198;51.464;-0.066;2023-02-28T11:45:03;3.53;;;2.57;;
60354;SDS011;46198;51.464;-0.066;2023-02-28T11:47:43;4.30;;;2.50;;
60354;SDS011;46198;51.464;-0.066;2023-02-28T11:50:18;4.93;;;3.03;;
60354;SDS011;46198;51.464;-0.066;2023-02-28T11:52:55;4.57;;;2.80;;
60354;SDS011;46198;51.464;-0.066;2023-02-28T11:55:30;5.17;;;2.77;;
60354;SDS011;46198;51.464;-0.066;2023-02-28T11:58:05;5.03;;;2.90;;
60354;SDS011;46198;51.464;-0.066;2023-02-28T12:01:01;4.13;;;2.63;;
60354;SDS011;46198;51.464;-0.066;2023-02-28T12:03:42;4.95;;;2.78;;
60354;SDS011;46198;51.464;-0.066;2023-02-28T12:06:17;6.60;;;2.80;;
60354;SDS011;46198;51.464;-0.066;2023-02-28T12:08:53;4.30;;;2.30;;
60354;SDS011;46198;51.464;-0.066;2023-02-28T12:11:34;3.67;;;2.60;;
60354;SDS011;46198;51.464;-0.066;2023-02-28T12:14:17;4.15;;;2.45;;
60354;SDS011;46198;51.464;-0.066;2023-02-28T12:17:17;3.97;;;2.60;;
60354;SDS011;46198;51.464;-0.066;2023-02-28T12:19:54;5.77;;;2.90;;
60354;SDS011;46198;51.464;-0.066;2023-02-28T12:22:31;3.23;;;2.17;;
60354;SDS011;46198;51.464;-0.066;2023-02-28T12:25:15;3.80;;;2.73;;
60354;SDS011;46198;51.464;-0.066;2023-02-28T12:27:53;5.10;;;3.40;;
60354;SDS011;46198;51.464;-0.066;2023-02-28T12:30:22;4.57;;;2.70;;
60354;SDS011;46198;51.464;-0.066;2023-02-28T12:32:55;3.10;;;2.70;;
60354;SDS011;46198;51.464;-0.066;2023-02-28T12:35:26;5.10;;;2.90;;
60354;SDS011;46198;51.464;-0.066;2023-02-28T12:38:02;5.53;;;2.97;;
60354;SDS011;46198;51.464;-0.066;2023-02-28T12:40:41;7.00;;;3.03;;
60354;SDS011;46198;51.464;-0.066;2023-02-28T12:43:15;3.87;;;2.60;;
60354;SDS011;46198;51.464;-0.066;2023-02-28T12:45:46;5.00;;;2.33;;
60354;SDS011;46198;51.464;-0.066;2023-02-28T12:48:19;4.20;;;2.37;;
60354;SDS011;46198;51.464;-0.066;2023-02-28T12:50:51;3.40;;;2.37;;
60354;SDS011;46198;51.464;-0.066;2023-02-28T12:53:22;3.10;;;2.47;;
60354;SDS011;46198;51.464;-0.066;2023-02-28T12:55:56;5.97;;;2.80;;
60354;SDS011;46198;51.464;-0.066;2023-02-28T12:58:35;7.03;;;3.33;;
60354;SDS011;46198;51.464;-0.066;2023-02-28T13:01:15;6.90;;;3.20;;
60354;SDS011;46198;51.464;-0.066;2023-02-28T13:04:22;9.47;;;3.27;;
60354;SDS011;46198;51.464;-0.066;2023-02-28T13:07:15;6.70;;;2.87;;
60354;SDS011;46198;51.464;-0.066;2023-02-28T13:10:04;5.43;;;2.67;;
60354;SDS011;46198;51.464;-0.066;2023-02-28T13:12:34;4.03;;;2.73;;
60354;SDS011;46198;51.464;-0.066;2023-02-28T13:15:15;4.90;;;2.17;;
60354;SDS011;46198;51.464;-0.066;2023-02-28T13:17:48;3.73;;;2.23;;
60354;SDS011;46198;51.464;-0.066;2023-02-28T13:20:18;6.88;;;2.53;;
60354;SDS011;46198;51.464;-0.066;2023-02-28T13:22:49;5.27;;;3.03;;
60354;SDS011;46198;51.464;-0.066;2023-02-28T13:35:12;3.03;;;2.40;;
60354;SDS011;46198;51.464;-0.066;2023-02-28T13:37:42;4.77;;;2.83;;
60354;SDS011;46198;51.464;-0.066;2023-02-28T13:40:28;5.13;;;2.40;;
60354;SDS011;46198;51.464;-0.066;2023-02-28T13:43:05;5.83;;;2.53;;
60354;SDS011;46198;51.464;-0.066;2023-02-28T13:45:35;2.70;;;2.27;;
60354;SDS011;46198;51.464;-0.066;2023-02-28T13:48:15;6.93;;;2.47;;
60354;SDS011;46198;51.464;-0.066;2023-02-28T13:50:46;4.83;;;2.40;;
60354;SDS011;46198;51.464;-0.066;2023-02-28T13:56:24;5.67;;;2.10;;
60354;SDS011;46198;51.464;-0.066;2023-02-28T13:59:01;5.83;;;2.30;;
60354;SDS011;46198;51.464;-0.066;2023-02-28T14:01:48;6.30;;;2.20;;
60354;SDS011;46198;51.464;-0.066;2023-02-28T14:04:37;2.23;;;2.03;;
60354;SDS011;46198;51.464;-0.066;2023-02-28T14:07:17;3.03;;;1.87;;
60354;SDS011;46198;51.464;-0.066;2023-02-28T14:09:50;5.10;;;2.30;;
60354;SDS011;46198;51.464;-0.066;2023-02-28T14:15:39;3.20;;;2.07;;
60354;SDS011;46198;51.464;-0.066;2023-02-28T14:18:26;2.47;;;1.90;;
60354;SDS011;46198;51.464;-0.066;2023-02-28T14:21:00;2.50;;;1.80;;
60354;SDS011;46198;51.464;-0.066;2023-02-28T14:23:43;3.30;;;1.97;;
60354;SDS011;46198;51.464;-0.066;2023-02-28T14:26:31;2.90;;;1.90;;
60354;SDS011;46198;51.464;-0.066;2023-02-28T14:29:21;2.67;;;2.20;;
60354;SDS011;46198;51.464;-0.066;2023-02-28T14:32:02;3.23;;;1.63;;
60354;SDS011;46198;51.464;-0.066;2023-02-28T14:34:40;2.90;;;1.43;;
60354;SDS011;46198;51.464;-0.066;2023-02-28T14:37:19;1.90;;;1.70;;
60354;SDS011;46198;51.464;-0.066;2023-02-28T14:39:52;2.20;;;1.30;;
60354;SDS011;46198;51.464;-0.066;2023-02-28T14:42:27;2.47;;;1.67;;
60354;SDS011;46198;51.464;-0.066;2023-02-28T14:44:57;2.97;;;2.03;;
60354;SDS011;46198;51.464;-0.066;2023-02-28T14:47:26;2.87;;;1.50;;
60354;SDS011;46198;51.464;-0.066;2023-02-28T14:49:56;3.00;;;1.37;;
60354;SDS011;46198;51.464;-0.066;2023-02-28T14:52:27;5.80;;;1.60;;
60354;SDS011;46198;51.464;-0.066;2023-02-28T14:54:57;3.07;;;1.63;;
60354;SDS011;46198;51.464;-0.066;2023-02-28T14:57:27;2.00;;;1.57;;
60354;SDS011;46198;51.464;-0.066;2023-02-28T14:59:58;1.95;;;1.50;;
60354;SDS011;46198;51.464;-0.066;2023-02-28T15:02:29;4.15;;;1.80;;
60354;SDS011;46198;51.464;-0.066;2023-02-28T15:04:59;2.03;;;1.40;;
60354;SDS011;46198;51.464;-0.066;2023-02-28T15:07:39;4.20;;;1.70;;
60354;SDS011;46198;51.464;-0.066;2023-02-28T15:10:11;3.57;;;1.60;;
60354;SDS011;46198;51.464;-0.066;2023-02-28T15:12:45;3.63;;;1.90;;
60354;SDS011;46198;51.464;-0.066;2023-02-28T15:15:19;5.40;;;1.80;;
60354;SDS011;46198;51.464;-0.066;2023-02-28T15:18:05;5.00;;;2.20;;
60354;SDS011;46198;51.464;-0.066;2023-02-28T15:20:38;6.15;;;2.55;;
60354;SDS011;46198;51.464;-0.066;2023-02-28T15:23:10;4.67;;;1.83;;
60354;SDS011;46198;51.464;-0.066;2023-02-28T15:25:39;5.70;;;2.40;;
60354;SDS011;46198;51.464;-0.066;2023-02-28T15:28:13;2.37;;;1.43;;
60354;SDS011;46198;51.464;-0.066;2023-02-28T15:30:53;7.00;;;2.57;;